createdAt,value
2022-11-26T00:02:28.022Z,7.26
2022-11-26T00:04:59.691Z,7.03
2022-11-26T00:07:29.982Z,7.55
2022-11-26T00:09:59.149Z,7.39
2022-11-26T00:12:31.761Z,7.18
2022-11-26T00:15:03.252Z,7.18
2022-11-26T00:17:32.487Z,7.35
2022-11-26T00:19:59.420Z,6.88
2022-11-26T00:22:39.886Z,7.04
2022-11-26T00:25:26.742Z,6.96
2022-11-26T00:28:00.456Z,7.64
2022-11-26T00:30:39.575Z,7.66
2022-11-26T00:33:30.516Z,7.55
2022-11-26T00:36:14.133Z,6.73
2022-11-26T00:38:46.590Z,6.98
2022-11-26T00:41:23.080Z,7.69
2022-11-26T00:43:50.531Z,7.67
2022-11-26T00:46:21.688Z,7.38
2022-11-26T00:48:51.244Z,6.88
2022-11-26T00:51:23.292Z,6.86
2022-11-26T00:53:51.934Z,6.99
2022-11-26T00:56:20.422Z,6.78
2022-11-26T00:58:48.495Z,7.17
2022-11-26T01:01:22.323Z,7.42
2022-11-26T01:03:52.828Z,7.22
2022-11-26T01:06:27.115Z,7.71
2022-11-26T01:09:03.751Z,7.00
2022-11-26T01:11:30.733Z,6.79
2022-11-26T01:14:00.315Z,7.00
2022-11-26T01:16:34.782Z,7.39
2022-11-26T01:19:02.540Z,7.51
2022-11-26T01:21:31.565Z,6.95
2022-11-26T01:24:02.228Z,6.85
2022-11-26T01:26:34.512Z,7.26
2022-11-26T01:29:03.593Z,6.79
2022-11-26T01:31:30.497Z,7.09
2022-11-26T01:34:00.968Z,6.99
2022-11-26T01:36:33.075Z,7.01
2022-11-26T01:39:13.873Z,6.98
2022-11-26T01:42:06.532Z,7.62
2022-11-26T01:44:36.605Z,7.53
2022-11-26T01:47:21.103Z,7.60
2022-11-26T01:50:28.377Z,7.59
2022-11-26T01:53:13.218Z,7.50
2022-11-26T01:55:54.538Z,7.30
2022-11-26T01:58:29.592Z,7.56
2022-11-26T02:00:59.217Z,6.67
2022-11-26T02:03:28.955Z,7.05
2022-11-26T02:06:01.902Z,7.48
2022-11-26T02:08:32.083Z,7.29
2022-11-26T02:10:58.820Z,7.51
2022-11-26T02:13:26.386Z,7.24
2022-11-26T02:15:56.952Z,7.60
2022-11-26T02:18:33.261Z,6.98
2022-11-26T02:21:13.836Z,6.91
2022-11-26T02:24:19.889Z,7.59
2022-11-26T02:27:22.882Z,7.51
2022-11-26T02:30:12.076Z,7.04
2022-11-26T02:36:13.143Z,7.01
2022-11-26T02:38:43.638Z,6.61
2022-11-26T02:41:13.066Z,7.06
2022-11-26T02:43:39.688Z,6.84
2022-11-26T02:46:12.666Z,6.79
2022-11-26T02:48:44.932Z,7.27
2022-11-26T02:51:16.650Z,6.39
2022-11-26T02:53:45.009Z,7.22
2022-11-26T02:56:17.171Z,6.59
2022-11-26T02:58:52.077Z,7.35
2022-11-26T03:01:43.663Z,6.88
2022-11-26T03:04:17.612Z,6.82
2022-11-26T03:06:45.466Z,6.53
2022-11-26T03:09:12.687Z,7.15
2022-11-26T03:11:39.866Z,6.76
2022-11-26T03:14:09.167Z,6.60
2022-11-26T03:16:36.181Z,6.75
2022-11-26T03:19:07.120Z,6.34
2022-11-26T03:21:34.325Z,7.41
2022-11-26T03:24:04.042Z,6.90
2022-11-26T03:26:30.851Z,6.90
2022-11-26T03:29:03.743Z,6.48
2022-11-26T03:31:31.721Z,6.47
2022-11-26T03:34:06.784Z,7.34
2022-11-26T03:36:38.069Z,6.91
2022-11-26T03:39:08.881Z,6.89
2022-11-26T03:41:37.304Z,6.76
2022-11-26T03:44:05.316Z,7.11
2022-11-26T03:46:32.439Z,7.14
2022-11-26T03:48:59.950Z,6.90
2022-11-26T03:51:37.361Z,6.58
2022-11-26T03:54:10.390Z,6.94
2022-11-26T03:56:37.051Z,7.02
2022-11-26T03:59:08.489Z,7.37
2022-11-26T04:01:37.317Z,7.12
2022-11-26T04:04:05.560Z,7.17
2022-11-26T04:06:32.372Z,6.98
2022-11-26T04:09:00.176Z,6.89
2022-11-26T04:11:39.976Z,7.44
2022-11-26T04:14:09.776Z,6.59
2022-11-26T04:16:37.432Z,7.40
2022-11-26T04:19:04.279Z,6.66
2022-11-26T04:21:33.896Z,6.64
2022-11-26T04:24:00.678Z,6.65
2022-11-26T04:26:31.965Z,7.36
2022-11-26T04:28:59.766Z,6.77
2022-11-26T04:31:29.784Z,7.36
2022-11-26T04:33:58.459Z,6.53
2022-11-26T04:36:25.365Z,6.72
2022-11-26T04:38:57.935Z,6.49
2022-11-26T04:41:27.003Z,7.02
2022-11-26T04:43:53.775Z,7.37
2022-11-26T04:46:26.782Z,7.11
2022-11-26T04:48:56.262Z,7.35
2022-11-26T04:51:26.610Z,7.35
2022-11-26T04:53:55.906Z,7.35
2022-11-26T04:56:26.339Z,7.04
2022-11-26T04:58:53.232Z,6.80
2022-11-26T05:01:19.935Z,7.05
2022-11-26T05:03:46.506Z,6.56
2022-11-26T05:06:13.175Z,6.68
2022-11-26T05:08:39.785Z,7.23
2022-11-26T05:11:06.393Z,7.00
2022-11-26T05:13:32.921Z,7.09
2022-11-26T05:16:00.005Z,7.21
2022-11-26T05:18:26.522Z,6.68
2022-11-26T05:20:53.077Z,7.25
2022-11-26T05:23:19.634Z,7.16
2022-11-26T05:25:46.245Z,7.26
2022-11-26T05:28:12.773Z,7.22
2022-11-26T05:30:39.342Z,7.07
2022-11-26T05:33:05.860Z,7.15
2022-11-26T05:35:32.412Z,7.33
2022-11-26T05:37:58.945Z,7.34
2022-11-26T05:40:25.546Z,7.30
2022-11-26T05:42:52.066Z,7.30
2022-11-26T05:45:18.699Z,7.40
2022-11-26T05:47:45.318Z,7.36
2022-11-26T05:50:12.216Z,7.26
2022-11-26T05:52:38.758Z,7.05
2022-11-26T05:55:05.881Z,6.98
2022-11-26T05:57:32.457Z,7.29
2022-11-26T05:59:59.085Z,7.15
2022-11-26T06:02:25.733Z,7.15
2022-11-26T06:04:52.384Z,7.37
2022-11-26T06:07:19.132Z,6.98
2022-11-26T06:09:45.750Z,7.12
2022-11-26T06:12:12.587Z,7.41
2022-11-26T06:14:42.916Z,6.80
2022-11-26T06:17:10.268Z,6.47
2022-11-26T06:19:36.878Z,7.00
2022-11-26T06:22:05.868Z,6.88
2022-11-26T06:24:32.613Z,7.23
2022-11-26T06:26:59.174Z,7.29
2022-11-26T06:29:28.104Z,6.41
2022-11-26T06:31:55.361Z,6.54
2022-11-26T06:34:22.270Z,6.97
2022-11-26T06:36:49.102Z,6.79
2022-11-26T06:39:15.651Z,6.96
2022-11-26T06:41:45.186Z,6.71
2022-11-26T06:44:11.814Z,6.57
2022-11-26T06:46:38.382Z,7.07
2022-11-26T06:49:06.008Z,7.21
2022-11-26T06:51:33.450Z,7.18
2022-11-26T06:54:00.203Z,6.53
2022-11-26T06:56:26.728Z,7.16
2022-11-26T06:58:56.735Z,6.48
2022-11-26T07:01:26.078Z,6.78
2022-11-26T07:03:53.444Z,7.22
2022-11-26T07:06:25.859Z,6.77
2022-11-26T07:08:54.205Z,7.10
2022-11-26T07:11:22.460Z,6.39
2022-11-26T07:13:48.982Z,7.27
2022-11-26T07:16:15.919Z,7.32
2022-11-26T07:18:42.535Z,7.34
2022-11-26T07:21:11.837Z,7.41
2022-11-26T07:23:39.249Z,7.42
2022-11-26T07:26:07.085Z,7.48
2022-11-26T07:28:34.706Z,7.49
2022-11-26T07:31:02.852Z,7.63
2022-11-26T07:33:29.762Z,7.65
2022-11-26T07:36:04.611Z,7.67
2022-11-26T07:38:31.584Z,7.69
2022-11-26T07:41:07.184Z,7.76
2022-11-26T07:43:38.620Z,7.65
2022-11-26T07:46:06.986Z,7.82
2022-11-26T07:48:34.468Z,7.63
2022-11-26T07:51:01.699Z,7.85
2022-11-26T07:53:29.459Z,7.82
2022-11-26T07:55:56.240Z,7.87
2022-11-26T07:58:23.549Z,7.92
2022-11-26T08:01:05.983Z,7.77
2022-11-26T08:03:32.683Z,7.82
2022-11-26T08:06:05.594Z,7.92
2022-11-26T08:08:34.203Z,7.77
2022-11-26T08:11:02.082Z,7.47
2022-11-26T08:13:28.889Z,7.40
2022-11-26T08:15:55.541Z,7.67
2022-11-26T08:18:22.134Z,7.88
2022-11-26T08:20:56.486Z,8.06
2022-11-26T08:23:24.323Z,7.91
2022-11-26T08:26:21.535Z,8.16
2022-11-26T08:28:39.676Z,8.17
2022-11-26T08:31:09.071Z,7.78
2022-11-26T08:33:36.280Z,8.15
2022-11-26T08:36:08.044Z,7.90
2022-11-26T08:38:35.986Z,8.14
2022-11-26T08:41:05.328Z,8.10
2022-11-26T08:44:04.019Z,7.96
2022-11-26T08:46:18.955Z,7.96
2022-11-26T08:48:47.911Z,7.65
2022-11-26T08:51:14.499Z,7.36
2022-11-26T08:53:41.061Z,7.91
2022-11-26T08:56:10.811Z,7.99
2022-11-26T08:58:39.646Z,7.81
2022-11-26T09:01:17.787Z,7.94
2022-11-26T09:03:47.085Z,7.94
2022-11-26T09:06:13.814Z,7.89
2022-11-26T09:08:59.011Z,7.79
2022-11-26T09:11:27.495Z,7.74
2022-11-26T09:13:54.776Z,7.80
2022-11-26T09:16:22.593Z,7.67
2022-11-26T09:18:50.379Z,7.94
2022-11-26T09:21:17.220Z,7.77
2022-11-26T09:23:43.758Z,8.04
2022-11-26T09:26:10.328Z,7.93
2022-11-26T09:28:37.056Z,7.96
2022-11-26T09:31:03.697Z,8.14
2022-11-26T09:33:30.997Z,8.17
2022-11-26T09:36:09.645Z,8.36
2022-11-26T09:38:36.947Z,8.41
2022-11-26T09:41:41.217Z,8.55
2022-11-26T09:44:26.030Z,8.65
2022-11-26T09:47:11.558Z,8.69
2022-11-26T09:50:03.193Z,8.71
2022-11-26T09:52:38.349Z,8.71
2022-11-26T09:55:21.812Z,8.34
2022-11-26T09:58:02.508Z,8.57
2022-11-26T10:00:51.058Z,8.73
2022-11-26T10:03:21.066Z,8.90
2022-11-26T10:06:02.884Z,9.04
2022-11-26T10:09:31.288Z,8.76
2022-11-26T10:12:25.457Z,9.11
2022-11-26T10:15:14.946Z,9.13
2022-11-26T10:17:54.645Z,8.97
2022-11-26T10:20:34.648Z,9.10
2022-11-26T10:23:11.208Z,9.00
2022-11-26T10:26:11.446Z,9.04
2022-11-26T10:28:55.548Z,9.06
2022-11-26T10:31:34.400Z,9.22
2022-11-26T10:34:21.073Z,9.27
2022-11-26T10:41:50.479Z,9.48
2022-11-26T10:49:05.272Z,9.26
2022-11-26T10:52:54.682Z,9.66
2022-11-26T11:17:51.496Z,9.19
2022-11-26T11:24:07.266Z,9.23
2022-11-26T11:26:25.684Z,9.21
2022-11-26T11:28:54.688Z,9.18
2022-11-26T11:31:23.716Z,9.15
2022-11-26T11:33:51.983Z,9.15
2022-11-26T11:36:25.994Z,9.10
2022-11-26T11:38:54.219Z,9.22
2022-11-26T11:41:28.960Z,9.26
2022-11-26T11:44:15.931Z,9.32
2022-11-26T11:47:01.109Z,9.38
2022-11-26T11:49:45.684Z,9.38
2022-11-26T11:52:20.420Z,9.50
2022-11-26T11:55:03.261Z,9.44
2022-11-26T11:58:07.191Z,9.34
2022-11-26T12:00:55.553Z,9.04
2022-11-26T12:03:41.050Z,9.03
2022-11-26T12:06:34.108Z,8.82
2022-11-26T12:09:12.212Z,8.83
2022-11-26T12:11:56.727Z,8.88
2022-11-26T12:14:30.123Z,8.94
2022-11-26T12:17:14.606Z,8.98
2022-11-26T12:19:50.696Z,8.97
2022-11-26T12:22:43.017Z,8.97
2022-11-26T12:25:36.660Z,8.97
2022-11-26T12:28:16.407Z,9.01
2022-11-26T12:30:55.731Z,8.50
2022-11-26T12:33:35.786Z,9.26
2022-11-26T12:36:17.059Z,9.32
2022-11-26T12:38:53.086Z,9.42
2022-11-26T12:41:25.328Z,9.34
2022-11-26T12:44:19.838Z,9.54
2022-11-26T12:46:56.052Z,9.83
2022-11-26T12:49:44.874Z,10.00
2022-11-26T12:52:28.936Z,10.19
2022-11-26T12:55:22.284Z,10.38
2022-11-26T12:57:56.781Z,10.47
2022-11-26T13:00:34.278Z,10.54
2022-11-26T13:03:04.913Z,10.72
2022-11-26T13:06:05.169Z,10.76
2022-11-26T13:08:53.565Z,10.79
2022-11-26T13:11:26.185Z,10.76
2022-11-26T13:14:17.027Z,10.62
2022-11-26T13:17:04.965Z,10.42
2022-11-26T13:19:53.100Z,10.17
2022-11-26T13:22:57.325Z,10.16
2022-11-26T13:25:29.878Z,10.14
2022-11-26T13:28:34.968Z,10.05
2022-11-26T13:31:32.744Z,10.01
2022-11-26T13:34:41.324Z,9.93
2022-11-26T13:37:32.642Z,9.77
2022-11-26T13:40:20.834Z,9.68
2022-11-26T13:43:07.422Z,9.64
2022-11-26T13:45:52.334Z,9.53
2022-11-26T13:48:38.891Z,9.11
2022-11-26T13:51:24.691Z,9.45
2022-11-26T13:54:21.499Z,9.34
2022-11-26T13:56:49.833Z,9.39
2022-11-26T13:59:23.990Z,8.99
2022-11-26T14:01:53.757Z,9.30
2022-11-26T14:04:23.325Z,9.27
2022-11-26T14:07:04.852Z,9.23
2022-11-26T14:09:46.527Z,9.05
2022-11-26T14:12:17.001Z,9.15
2022-11-26T14:14:49.176Z,9.13
2022-11-26T14:17:25.415Z,9.11
2022-11-26T14:19:52.296Z,9.01
2022-11-26T14:22:22.266Z,9.06
2022-11-26T14:24:51.977Z,9.03
2022-11-26T14:27:24.412Z,8.78
2022-11-26T14:30:24.225Z,8.94
2022-11-26T14:33:16.206Z,8.85
2022-11-26T14:35:54.435Z,8.92
2022-11-26T14:38:28.619Z,8.84
2022-11-26T14:41:00.411Z,8.76
2022-11-26T14:43:28.172Z,8.88
2022-11-26T14:46:05.304Z,8.84
2022-11-26T14:48:34.753Z,8.68
2022-11-26T14:51:02.236Z,8.78
2022-11-26T14:53:32.007Z,8.74
2022-11-26T14:55:59.326Z,8.68
2022-11-26T14:58:36.660Z,8.62
2022-11-26T15:01:15.115Z,8.58
2022-11-26T15:03:42.478Z,8.55
2022-11-26T15:06:42.935Z,8.45
2022-11-26T15:09:17.702Z,8.43
2022-11-26T15:11:50.928Z,8.41
2022-11-26T15:14:27.106Z,8.38
2022-11-26T15:17:01.999Z,8.26
2022-11-26T15:19:32.942Z,8.30
2022-11-26T15:22:02.323Z,8.27
2022-11-26T15:24:28.969Z,8.14
2022-11-26T15:26:55.517Z,8.08
2022-11-26T15:29:34.732Z,7.97
2022-11-26T15:32:01.879Z,7.88
2022-11-26T15:34:29.904Z,7.84
2022-11-26T15:36:56.481Z,7.77
2022-11-26T15:39:31.366Z,7.70
2022-11-26T15:42:05.944Z,7.64
2022-11-26T15:44:42.040Z,7.49
2022-11-26T15:47:20.348Z,7.40
2022-11-26T15:49:51.964Z,7.38
2022-11-26T15:52:22.479Z,7.41
2022-11-26T15:55:13.311Z,7.28
2022-11-26T15:57:41.837Z,7.22
2022-11-26T16:00:21.589Z,7.19
2022-11-26T16:02:48.427Z,7.13
2022-11-26T16:05:38.502Z,7.02
2022-11-26T16:08:27.126Z,6.97
2022-11-26T16:11:02.905Z,6.89
2022-11-26T16:13:34.587Z,6.82
2022-11-26T16:16:03.955Z,6.75
2022-11-26T16:18:36.926Z,6.73
2022-11-26T16:21:24.710Z,6.30
2022-11-26T16:23:57.434Z,6.57
2022-11-26T16:26:24.112Z,6.47
2022-11-26T16:28:50.696Z,6.25
2022-11-26T16:31:18.150Z,6.34
2022-11-26T16:33:45.418Z,6.20
2022-11-26T16:36:24.715Z,6.29
2022-11-26T16:38:52.015Z,6.18
2022-11-26T16:41:21.391Z,6.20
2022-11-26T16:43:48.645Z,6.17
2022-11-26T16:46:23.955Z,5.99
2022-11-26T16:48:51.368Z,6.06
2022-11-26T16:51:21.999Z,5.98
2022-11-26T16:53:50.044Z,5.30
2022-11-26T16:56:32.715Z,5.85
2022-11-26T16:59:00.136Z,5.40
2022-11-26T17:01:27.158Z,5.24
2022-11-26T17:03:54.060Z,5.75
2022-11-26T17:06:33.784Z,5.69
2022-11-26T17:09:01.134Z,5.67
2022-11-26T17:11:27.943Z,5.21
2022-11-26T17:13:54.904Z,5.70
2022-11-26T17:16:26.170Z,5.27
2022-11-26T17:18:53.107Z,4.99
2022-11-26T17:21:20.013Z,5.16
2022-11-26T17:23:46.753Z,5.26
2022-11-26T17:26:25.587Z,5.54
2022-11-26T17:28:52.311Z,5.52
2022-11-26T17:31:19.301Z,5.65
2022-11-26T17:33:46.001Z,5.35
2022-11-26T17:36:19.224Z,5.35
2022-11-26T17:38:46.642Z,5.60
2022-11-26T17:41:14.176Z,5.42
2022-11-26T17:43:41.107Z,5.05
2022-11-26T17:46:16.286Z,5.11
2022-11-26T17:48:43.249Z,4.60
2022-11-26T17:51:12.483Z,5.06
2022-11-26T17:53:39.304Z,4.95
2022-11-26T17:56:06.120Z,5.35
2022-11-26T17:58:32.675Z,5.21
2022-11-26T18:00:59.303Z,4.76
2022-11-26T18:03:26.561Z,4.82
2022-11-26T18:05:53.152Z,4.65
2022-11-26T18:08:19.790Z,4.69
2022-11-26T18:10:46.861Z,4.70
2022-11-26T18:13:13.460Z,4.65
2022-11-26T18:15:40.097Z,4.94
2022-11-26T18:18:07.585Z,5.00
2022-11-26T18:20:34.838Z,4.99
2022-11-26T18:23:01.611Z,4.99
2022-11-26T18:25:29.222Z,4.83
2022-11-26T18:27:55.814Z,4.77
2022-11-26T18:30:22.707Z,4.90
2022-11-26T18:32:49.431Z,4.75
2022-11-26T18:35:16.246Z,4.79
2022-11-26T18:37:42.950Z,4.84
2022-11-26T18:40:15.201Z,4.82
2022-11-26T18:42:41.712Z,4.68
2022-11-26T18:45:11.488Z,4.81
2022-11-26T18:47:38.508Z,4.78
2022-11-26T18:50:06.350Z,4.59
2022-11-26T18:52:32.995Z,4.17
2022-11-26T18:55:00.120Z,4.22
2022-11-26T18:57:27.586Z,4.64
2022-11-26T18:59:54.131Z,4.53
2022-11-26T19:02:20.733Z,4.18
2022-11-26T19:04:47.320Z,4.17
2022-11-26T19:07:14.276Z,4.47
2022-11-26T19:09:42.022Z,4.56
2022-11-26T19:12:09.002Z,4.55
2022-11-26T19:14:35.571Z,4.22
2022-11-26T19:17:02.279Z,4.40
2022-11-26T19:19:28.996Z,3.98
2022-11-26T19:22:01.149Z,4.20
2022-11-26T19:24:29.033Z,4.15
2022-11-26T19:26:56.056Z,4.33
2022-11-26T19:29:22.908Z,4.40
2022-11-26T19:31:49.501Z,4.38
2022-11-26T19:34:16.513Z,3.99
2022-11-26T19:36:48.084Z,4.03
2022-11-26T19:39:15.848Z,4.22
2022-11-26T19:41:42.692Z,4.20
2022-11-26T19:44:09.320Z,4.15
2022-11-26T19:46:38.093Z,3.73
2022-11-26T19:49:04.618Z,4.07
2022-11-26T19:51:31.287Z,3.57
2022-11-26T19:53:57.894Z,4.03
2022-11-26T19:56:30.355Z,4.08
2022-11-26T19:58:58.663Z,4.02
2022-11-26T20:01:27.334Z,4.03
2022-11-26T20:03:54.245Z,4.02
2022-11-26T20:06:23.235Z,4.07
2022-11-26T20:08:50.200Z,4.07
2022-11-26T20:11:18.184Z,3.94
2022-11-26T20:13:47.416Z,3.93
2022-11-26T20:16:17.824Z,3.73
2022-11-26T20:18:45.382Z,3.97
2022-11-26T20:21:19.783Z,3.99
2022-11-26T20:23:47.542Z,3.86
2022-11-26T20:26:18.788Z,3.96
2022-11-26T20:28:45.820Z,3.88
2022-11-26T20:31:13.915Z,3.96
2022-11-26T20:33:41.125Z,3.84
2022-11-26T20:36:10.468Z,3.28
2022-11-26T20:38:37.903Z,3.81
2022-11-26T20:41:09.609Z,3.86
2022-11-26T20:43:36.689Z,3.71
2022-11-26T20:46:05.965Z,3.37
2022-11-26T20:48:34.172Z,3.53
2022-11-26T20:51:06.498Z,3.29
2022-11-26T20:53:36.125Z,3.66
2022-11-26T20:56:03.647Z,3.61
2022-11-26T20:58:30.278Z,3.58
2022-11-26T21:00:57.008Z,3.42
2022-11-26T21:03:25.657Z,3.38
2022-11-26T21:05:52.757Z,3.35
2022-11-26T21:08:20.727Z,3.43
2022-11-26T21:10:47.474Z,3.31
2022-11-26T21:13:15.936Z,3.36
2022-11-26T21:15:43.628Z,3.36
2022-11-26T21:18:11.098Z,3.33
2022-11-26T21:20:41.481Z,3.29
2022-11-26T21:23:09.176Z,3.23
2022-11-26T21:25:40.906Z,3.18
2022-11-26T21:28:08.344Z,3.10
2022-11-26T21:30:36.043Z,3.02
2022-11-26T21:33:08.761Z,2.71
2022-11-26T21:35:35.726Z,2.94
2022-11-26T21:38:02.307Z,2.93
2022-11-26T21:40:29.404Z,2.91
2022-11-26T21:42:56.166Z,2.92
2022-11-26T21:45:22.989Z,2.85
2022-11-26T21:47:52.714Z,2.95
2022-11-26T21:50:19.659Z,2.90
2022-11-26T21:52:46.483Z,2.94
2022-11-26T21:55:13.024Z,2.98
2022-11-26T21:57:39.519Z,3.01
2022-11-26T22:00:06.650Z,3.00
2022-11-26T22:02:33.164Z,2.99
2022-11-26T22:04:59.675Z,2.92
2022-11-26T22:07:26.247Z,2.85
2022-11-26T22:09:52.956Z,2.84
2022-11-26T22:12:19.451Z,2.92
2022-11-26T22:14:45.981Z,2.88
2022-11-26T22:17:12.525Z,2.95
2022-11-26T22:19:39.425Z,2.92
2022-11-26T22:22:06.062Z,2.98
2022-11-26T22:24:32.709Z,2.99
2022-11-26T22:26:59.446Z,3.03
2022-11-26T22:29:26.056Z,3.04
2022-11-26T22:31:52.614Z,3.04
2022-11-26T22:34:24.513Z,3.04
2022-11-26T22:36:51.136Z,3.00
2022-11-26T22:39:20.085Z,3.04
2022-11-26T22:41:47.858Z,3.05
2022-11-26T22:44:15.843Z,3.04
2022-11-26T22:46:43.087Z,3.03
2022-11-26T22:49:20.210Z,3.01
2022-11-26T22:51:47.387Z,3.00
2022-11-26T22:54:15.678Z,2.95
2022-11-26T22:56:42.301Z,2.92
2022-11-26T22:59:12.612Z,2.83
2022-11-26T23:01:39.234Z,2.89
2022-11-26T23:04:08.099Z,2.88
2022-11-26T23:06:35.909Z,2.81
2022-11-26T23:09:04.970Z,2.74
2022-11-26T23:11:34.907Z,2.62
2022-11-26T23:14:07.207Z,2.49
2022-11-26T23:16:35.037Z,2.52
2022-11-26T23:19:03.103Z,2.52
2022-11-26T23:21:35.528Z,2.44
2022-11-26T23:24:02.143Z,2.40
2022-11-26T23:26:33.345Z,2.31
2022-11-26T23:29:01.549Z,2.26
2022-11-26T23:31:31.092Z,2.25
2022-11-26T23:33:58.240Z,2.23
2022-11-26T23:36:26.586Z,2.20
2022-11-26T23:38:53.744Z,2.15
2022-11-26T23:41:20.643Z,2.23
2022-11-26T23:43:47.254Z,1.95
2022-11-26T23:46:22.641Z,2.24
2022-11-26T23:48:49.695Z,2.22
2022-11-26T23:51:21.749Z,2.20
2022-11-26T23:53:50.308Z,2.15
2022-11-26T23:56:20.737Z,2.13
2022-11-26T23:58:51.718Z,2.09
